Weather at Lugo Di Romagna Airport

Public forecast

Using degrees Celsius for public forecast. Weather courtesy of forecast.io.

Closest aviation weather report (METAR) to Lugo Di Romagna Airport

Report is more than 6 hours old.

Closest report is Forlì Airport, 15.3 nm (28.4 km) SE. Retrieved 2021/10/20 20:50 UTC (8 hours ago):

LIPK 202050Z VRB01KT CAVOK 13/09 Q1021

Closest aviation forecast (TAF) to Lugo Di Romagna Airport

Forecast is more than 6 hours old.

Closest forecast is Forlì Airport, 15.3 nm (28.4 km) SE. Retrieved 2021/10/20 18:00 UTC (10 hours ago):

TAF LIPK 201700Z 2018/2118 VRB05KT 9999 FEW060 BECMG 2107/2109 22011KT BECMG 2116/2118 VRB05KT